Time;durP1;ratioP1;P1;durP2;ratioP2;P2;SDS_P1;SDS_P2;PMS_P1;PMS_P2;Temp;Humidity;BMP_temperature;BMP_pressure;BME280_temperature;BME280_humidity;BME280_pressure;Samples;Min_cycle;Max_cycle;Signal;HPM_P1;HPM_P2
2021/06/07 00:01:24;;;;;;;3.97;3.50;;;12.50;99.90;;;;;;5095090;28;20047;-57
2021/06/07 00:03:50;;;;;;;6.13;3.90;;;12.50;99.90;;;;;;5095044;28;20068;-57
2021/06/07 00:06:17;;;;;;;7.00;3.58;;;12.40;99.90;;;;;;5094923;28;20047;-57
2021/06/07 00:08:44;;;;;;;7.07;3.67;;;12.30;99.90;;;;;;5094630;28;20071;-57
2021/06/07 00:11:12;;;;;;;4.38;2.95;;;12.30;99.90;;;;;;5094677;28;20051;-57
2021/06/07 00:13:39;;;;;;;5.10;3.70;;;12.20;99.90;;;;;;5094909;28;20044;-57
2021/06/07 00:16:05;;;;;;;7.70;4.13;;;12.10;99.90;;;;;;5094798;28;20048;-57
2021/06/07 00:18:31;;;;;;;5.22;3.97;;;12.10;99.90;;;;;;5094483;28;20478;-57
2021/06/07 00:21:12;;;;;;;4.78;4.35;;;12.00;99.90;;;;;;5094439;28;20044;-57
2021/06/07 00:23:41;;;;;;;9.57;4.85;;;11.90;99.90;;;;;;5094503;28;20040;-57
2021/06/07 00:26:07;;;;;;;11.93;4.28;;;11.90;99.90;;;;;;5094698;28;20048;-57
2021/06/07 00:28:33;;;;;;;12.15;5.05;;;11.90;99.90;;;;;;5094540;28;20044;-57
2021/06/07 00:31:03;;;;;;;6.68;4.25;;;11.90;99.90;;;;;;5094535;28;20044;-57
2021/06/07 00:33:29;;;;;;;8.18;4.15;;;11.80;99.90;;;;;;5094505;28;20044;-57
2021/06/07 00:35:55;;;;;;;7.10;4.53;;;11.90;99.90;;;;;;5094338;28;20040;-57
2021/06/07 00:38:21;;;;;;;5.72;4.53;;;11.90;99.90;;;;;;5094073;28;20534;-57
2021/06/07 00:40:47;;;;;;;9.32;4.45;;;12.20;99.90;;;;;;5094363;28;20032;-57
2021/06/07 00:43:14;;;;;;;7.38;4.22;;;11.90;99.90;;;;;;5094265;28;20059;-57
2021/06/07 00:45:40;;;;;;;5.95;3.53;;;11.90;99.90;;;;;;5094091;28;20036;-57
2021/06/07 00:48:08;;;;;;;6.68;4.13;;;11.80;99.90;;;;;;5094077;28;20469;-57
2021/06/07 00:50:44;;;;;;;5.82;3.80;;;11.80;99.90;;;;;;5093983;28;20462;-57
2021/06/07 00:53:13;;;;;;;8.95;3.90;;;11.90;99.90;;;;;;5094106;28;20101;-57
2021/06/07 00:55:54;;;;;;;8.10;4.68;;;11.80;99.90;;;;;;5093446;28;20040;-57
2021/06/07 00:58:23;;;;;;;6.32;4.72;;;11.80;99.90;;;;;;5093872;28;20068;-57
2021/06/07 01:00:49;;;;;;;8.63;4.18;;;11.80;99.90;;;;;;5075302;28;20055;-57
2021/06/07 01:03:17;;;;;;;5.57;4.05;;;11.80;99.90;;;;;;5093886;28;20047;-57
2021/06/07 01:05:46;;;;;;;7.20;4.10;;;11.70;99.90;;;;;;5093791;28;20394;-57
2021/06/07 01:08:12;;;;;;;4.25;3.75;;;11.70;99.90;;;;;;5093716;28;20497;-57
2021/06/07 01:10:38;;;;;;;4.53;3.67;;;11.60;99.90;;;;;;5093623;28;20452;-57
2021/06/07 01:13:04;;;;;;;5.55;4.03;;;11.60;99.90;;;;;;5093561;28;20126;-57
2021/06/07 01:15:30;;;;;;;11.55;4.55;;;11.60;99.90;;;;;;5093511;28;20117;-56
2021/06/07 01:17:56;;;;;;;5.63;4.88;;;11.60;99.90;;;;;;5093625;28;20054;-56
2021/06/07 01:20:23;;;;;;;5.03;4.53;;;11.70;99.90;;;;;;5093293;28;20071;-57
2021/06/07 01:22:52;;;;;;;6.00;4.70;;;11.70;99.90;;;;;;5093410;28;20048;-57
2021/06/07 01:25:22;;;;;;;7.68;4.20;;;11.70;99.90;;;;;;5093242;28;20036;-57
2021/06/07 01:27:49;;;;;;;5.80;3.90;;;11.60;99.90;;;;;;5093229;28;20107;-57
2021/06/07 01:30:18;;;;;;;7.68;4.53;;;11.70;99.90;;;;;;5093104;28;20048;-57
2021/06/07 01:32:44;;;;;;;;;;;11.60;99.90;;;;;;5093798;28;20040;-57
2021/06/07 01:35:12;;;;;;;5.88;4.10;;;11.50;99.90;;;;;;5093249;28;19961;-57
2021/06/07 01:37:39;;;;;;;5.45;3.90;;;11.50;99.90;;;;;;5093300;28;20106;-57
2021/06/07 01:40:08;;;;;;;8.25;4.70;;;11.40;99.90;;;;;;5093005;28;20047;-57
2021/06/07 01:42:34;;;;;;;7.88;4.80;;;11.40;99.90;;;;;;5093087;28;20047;-57
2021/06/07 01:45:01;;;;;;;8.48;3.90;;;11.40;99.90;;;;;;5093288;28;20703;-57
2021/06/07 01:47:26;;;;;;;8.82;4.72;;;11.40;99.90;;;;;;5093072;28;20139;-57
2021/06/07 01:49:52;;;;;;;5.30;4.22;;;11.50;99.90;;;;;;5092689;28;20139;-57
2021/06/07 01:52:18;;;;;;;7.43;4.30;;;11.50;99.90;;;;;;5092912;28;20047;-57
2021/06/07 01:54:44;;;;;;;7.15;3.97;;;11.50;99.90;;;;;;5092528;28;20039;-56
2021/06/07 01:57:09;;;;;;;7.32;4.55;;;11.40;99.90;;;;;;5092838;28;20044;-56
2021/06/07 01:59:36;;;;;;;5.72;4.18;;;11.30;99.90;;;;;;5092242;28;20565;-57
2021/06/07 02:02:05;;;;;;;5.60;3.95;;;11.20;99.90;;;;;;5092543;28;20115;-57
2021/06/07 02:04:31;;;;;;;6.43;4.70;;;11.30;99.90;;;;;;5092768;28;20044;-57
2021/06/07 02:06:57;;;;;;;8.02;4.47;;;11.30;99.90;;;;;;5092544;28;20058;-57
2021/06/07 02:09:23;;;;;;;5.07;4.35;;;11.40;99.90;;;;;;5092474;28;20048;-57
2021/06/07 02:11:49;;;;;;;9.68;4.80;;;11.40;99.90;;;;;;5092308;28;20047;-57
2021/06/07 02:14:14;;;;;;;9.45;4.85;;;11.40;99.90;;;;;;5092582;28;20048;-56
2021/06/07 02:16:41;;;;;;;5.13;4.38;;;11.30;99.90;;;;;;5092330;28;20455;-57
2021/06/07 02:19:08;;;;;;;5.38;4.72;;;11.30;99.90;;;;;;5092216;28;20379;-57
2021/06/07 02:21:36;;;;;;;5.57;4.60;;;11.20;99.90;;;;;;5092302;28;20040;-57
2021/06/07 02:24:06;;;;;;;5.82;4.05;;;11.30;99.90;;;;;;5092217;28;20032;-57
2021/06/07 02:26:33;;;;;;;4.25;3.80;;;11.30;99.90;;;;;;5092200;28;20082;-57
2021/06/07 02:29:07;;;;;;;7.55;4.93;;;11.30;99.90;;;;;;5092410;28;20146;-57
2021/06/07 02:31:34;;;;;;;6.82;4.05;;;11.30;99.90;;;;;;5092491;28;20044;-57
2021/06/07 02:34:03;;;;;;;5.63;4.60;;;11.20;99.90;;;;;;5092581;28;20071;-57
2021/06/07 02:36:31;;;;;;;8.57;4.63;;;11.20;99.90;;;;;;5092242;28;20078;-57
2021/06/07 02:38:57;;;;;;;6.87;4.30;;;11.20;99.90;;;;;;5091954;28;20466;-57
2021/06/07 02:41:24;;;;;;;7.15;4.63;;;11.20;99.90;;;;;;5092336;28;20135;-57
2021/06/07 02:43:50;;;;;;;5.93;4.93;;;11.10;99.90;;;;;;5092253;28;20075;-57
2021/06/07 02:46:18;;;;;;;7.38;4.68;;;11.10;99.90;;;;;;5092234;28;20043;-57
2021/06/07 02:48:44;;;;;;;5.45;4.38;;;11.10;99.90;;;;;;5092073;28;20040;-57
2021/06/07 02:51:10;;;;;;;5.20;3.85;;;11.00;99.90;;;;;;5092043;28;20066;-57
2021/06/07 02:53:36;;;;;;;4.78;4.30;;;11.00;99.90;;;;;;5092137;28;20047;-57
2021/06/07 02:56:03;;;;;;;6.97;4.00;;;11.10;99.90;;;;;;5092249;28;20059;-57
2021/06/07 02:58:29;;;;;;;5.43;4.20;;;11.20;99.90;;;;;;5092082;28;20044;-57
2021/06/07 03:01:03;;;;;;;5.47;4.45;;;11.20;99.90;;;;;;5091823;28;20473;-56
2021/06/07 03:03:28;;;;;;;7.30;4.30;;;11.30;99.90;;;;;;5091831;28;20044;-57
2021/06/07 03:05:58;;;;;;;7.93;5.07;;;11.30;99.90;;;;;;5091641;28;20040;-57
2021/06/07 03:08:27;;;;;;;6.05;4.88;;;11.30;99.90;;;;;;5092023;28;20050;-57
2021/06/07 03:10:56;;;;;;;9.98;4.88;;;11.30;99.90;;;;;;5091635;28;20569;-57
2021/06/07 03:13:22;;;;;;;5.82;5.30;;;11.20;99.90;;;;;;5091968;28;20087;-57
2021/06/07 03:15:50;;;;;;;5.63;4.93;;;11.30;99.90;;;;;;5091807;28;20064;-57
2021/06/07 03:18:16;;;;;;;5.13;4.63;;;11.30;99.90;;;;;;5092898;28;20079;-57
2021/06/07 03:20:42;;;;;;;6.47;4.47;;;11.20;99.90;;;;;;5095938;28;20044;-57
2021/06/07 03:23:10;;;;;;;6.97;4.80;;;11.20;99.90;;;;;;5095911;28;20090;-57
2021/06/07 03:25:37;;;;;;;8.20;4.70;;;11.10;99.90;;;;;;5095887;28;20036;-57
2021/06/07 03:28:04;;;;;;;5.30;4.35;;;11.00;99.90;;;;;;5095672;28;20051;-57
2021/06/07 03:30:30;;;;;;;6.97;4.70;;;11.00;99.90;;;;;;5095586;28;20482;-57
2021/06/07 03:32:56;;;;;;;4.78;4.28;;;11.00;99.90;;;;;;5095428;28;20539;-57
2021/06/07 03:35:23;;;;;;;5.90;4.70;;;11.00;99.90;;;;;;5095458;28;20040;-56
2021/06/07 03:37:49;;;;;;;6.80;5.20;;;11.00;99.90;;;;;;5095479;28;20059;-56
2021/06/07 03:40:20;;;;;;;5.57;4.05;;;11.00;99.90;;;;;;5095289;28;20046;-57
2021/06/07 03:42:47;;;;;;;5.38;4.88;;;11.00;99.90;;;;;;5095380;28;20456;-56
2021/06/07 03:45:14;;;;;;;5.97;4.35;;;10.90;99.90;;;;;;5095244;28;20040;-56
2021/06/07 03:47:40;;;;;;;6.10;5.05;;;11.10;99.90;;;;;;5095117;28;20047;-56
2021/06/07 03:50:08;;;;;;;7.75;4.43;;;11.10;99.90;;;;;;5095381;28;20044;-57
2021/06/07 03:52:34;;;;;;;5.25;4.75;;;11.20;99.90;;;;;;5095155;28;20044;-57
2021/06/07 03:55:02;;;;;;;6.95;4.07;;;11.20;99.90;;;;;;5095189;28;20047;-57
2021/06/07 03:57:28;;;;;;;4.93;4.53;;;11.20;99.90;;;;;;5095176;28;20051;-57
2021/06/07 03:59:53;;;;;;;5.65;4.43;;;11.20;99.90;;;;;;5094531;28;20056;-57
2021/06/07 04:02:21;;;;;;;6.43;4.68;;;11.20;99.90;;;;;;5094916;28;20052;-56
2021/06/07 04:04:47;;;;;;;6.78;5.25;;;11.20;99.90;;;;;;5094928;28;20044;-57
2021/06/07 04:07:13;;;;;;;6.25;5.43;;;11.10;99.90;;;;;;5094828;28;20089;-56
2021/06/07 04:09:40;;;;;;;9.40;5.60;;;11.10;99.90;;;;;;5094818;28;20122;-57
2021/06/07 04:12:07;;;;;;;5.93;5.07;;;11.10;99.90;;;;;;5094670;28;20153;-57
2021/06/07 04:14:32;;;;;;;8.27;5.30;;;11.20;99.90;;;;;;5094602;28;20043;-56
2021/06/07 04:16:58;;;;;;;8.30;6.00;;;11.50;99.90;;;;;;5094864;28;20390;-57
2021/06/07 04:19:24;;;;;;;7.10;5.72;;;11.20;99.90;;;;;;5094754;28;20055;-56
2021/06/07 04:21:50;;;;;;;7.65;5.47;;;11.30;99.90;;;;;;5094633;28;20476;-56
2021/06/07 04:24:16;;;;;;;6.97;5.88;;;11.30;99.90;;;;;;5094723;28;20123;-56
2021/06/07 04:26:41;;;;;;;6.57;5.90;;;11.30;99.90;;;;;;5094689;28;21069;-56
2021/06/07 04:29:07;;;;;;;8.63;5.88;;;11.30;99.90;;;;;;5093709;28;20040;-56
2021/06/07 04:31:33;;;;;;;8.82;6.05;;;11.40;99.90;;;;;;5093831;28;20047;-56
2021/06/07 04:33:59;;;;;;;7.80;5.50;;;11.50;99.90;;;;;;5094435;28;20048;-56
2021/06/07 04:36:25;;;;;;;7.38;5.45;;;11.60;99.90;;;;;;5094507;28;20040;-56
2021/06/07 04:38:51;;;;;;;8.13;5.55;;;11.60;99.90;;;;;;5093992;28;20417;-56
2021/06/07 04:41:17;;;;;;;11.15;6.55;;;11.70;99.90;;;;;;5094267;28;20436;-56
2021/06/07 04:43:43;;;;;;;9.32;6.55;;;11.90;99.90;;;;;;5094085;28;20048;-56
2021/06/07 04:46:08;;;;;;;12.70;7.15;;;12.00;99.90;;;;;;5094093;28;20469;-56
2021/06/07 04:48:34;;;;;;;8.93;7.32;;;12.10;99.90;;;;;;5075932;28;20040;-56
2021/06/07 04:51:00;;;;;;;8.32;6.93;;;12.20;99.90;;;;;;5094169;28;20044;-57
2021/06/07 04:53:26;;;;;;;11.98;7.88;;;12.30;99.90;;;;;;5094000;28;20094;-57
2021/06/07 04:55:53;;;;;;;15.43;8.52;;;12.50;99.90;;;;;;5093787;28;20504;-56
2021/06/07 04:58:26;;;;;;;13.93;8.35;;;12.60;99.90;;;;;;5093790;28;20051;-56
2021/06/07 05:00:55;;;;;;;9.27;7.50;;;12.70;99.90;;;;;;5093520;28;20075;-56
2021/06/07 05:03:21;;;;;;;;;;;12.80;99.90;;;;;;5094139;28;20044;-56
2021/06/07 05:05:47;;;;;;;11.45;7.80;;;12.90;99.90;;;;;;5093760;28;20258;-56
2021/06/07 05:08:13;;;;;;;12.82;8.20;;;13.10;99.90;;;;;;5093620;28;20046;-57
2021/06/07 05:10:40;;;;;;;11.02;8.20;;;13.20;99.90;;;;;;5093551;28;20047;-56
2021/06/07 05:13:06;;;;;;;14.68;8.13;;;13.20;99.90;;;;;;5093488;28;20043;-56
2021/06/07 05:15:32;;;;;;;11.45;7.95;;;13.40;99.90;;;;;;5093361;28;20463;-55
2021/06/07 05:17:57;;;;;;;12.02;7.85;;;13.40;99.90;;;;;;5093542;28;20135;-56
2021/06/07 05:20:26;;;;;;;9.27;8.07;;;13.50;99.90;;;;;;5093501;28;20123;-56
2021/06/07 05:22:53;;;;;;;8.77;7.47;;;13.50;99.90;;;;;;5093490;28;20390;-56
2021/06/07 05:25:21;;;;;;;8.38;7.30;;;13.70;99.90;;;;;;5093399;28;20070;-56
2021/06/07 05:27:48;;;;;;;8.75;7.85;;;13.70;99.90;;;;;;5093276;28;20371;-57
2021/06/07 05:30:15;;;;;;;14.40;7.65;;;13.80;99.90;;;;;;5093510;28;20044;-57
2021/06/07 05:32:40;;;;;;;11.25;7.72;;;13.80;99.90;;;;;;5093359;28;20401;-56
2021/06/07 05:35:12;;;;;;;7.53;6.63;;;13.90;99.90;;;;;;5093307;28;20044;-56
2021/06/07 05:37:38;;;;;;;11.48;7.35;;;14.00;99.90;;;;;;5093137;28;20055;-56
2021/06/07 05:40:07;;;;;;;9.55;6.63;;;14.10;99.90;;;;;;5092989;28;20473;-56
2021/06/07 05:42:33;;;;;;;7.67;6.03;;;14.20;99.90;;;;;;5092629;28;20170;-56
2021/06/07 05:44:59;;;;;;;10.57;5.68;;;14.20;99.90;;;;;;5093074;28;20643;-56
2021/06/07 05:47:25;;;;;;;5.80;5.20;;;14.30;99.90;;;;;;5092869;28;20054;-57
2021/06/07 05:49:50;;;;;;;9.40;5.72;;;14.40;99.90;;;;;;5092713;28;20040;-56
2021/06/07 05:52:16;;;;;;;9.27;6.28;;;14.50;99.90;;;;;;5092739;28;20121;-57
2021/06/07 05:54:43;;;;;;;6.78;5.50;;;14.60;99.90;;;;;;5092602;28;20052;-57
2021/06/07 05:57:10;;;;;;;8.82;6.10;;;14.70;99.90;;;;;;5092659;28;20444;-56
2021/06/07 05:59:36;;;;;;;7.63;4.88;;;14.80;99.90;;;;;;5092430;28;20072;-55
2021/06/07 06:02:06;;;;;;;8.77;5.25;;;14.80;99.90;;;;;;5092427;28;20059;-56
2021/06/07 06:04:34;;;;;;;7.22;5.25;;;14.90;99.90;;;;;;5092304;28;20044;-56
2021/06/07 06:07:01;;;;;;;8.13;5.05;;;15.00;99.90;;;;;;5074636;28;20044;-57
2021/06/07 06:09:27;;;;;;;8.10;5.15;;;15.10;99.90;;;;;;5092597;28;20077;-57
2021/06/07 06:11:54;;;;;;;5.90;4.93;;;15.20;99.90;;;;;;5092634;28;20044;-57
2021/06/07 06:14:19;;;;;;;5.57;4.60;;;15.30;99.90;;;;;;5092555;28;20130;-57
2021/06/07 06:16:45;;;;;;;10.38;5.90;;;15.50;99.90;;;;;;5092531;28;20131;-57
2021/06/07 06:19:12;;;;;;;6.50;4.57;;;15.60;99.90;;;;;;5092066;28;20040;-57
2021/06/07 06:21:40;;;;;;;5.32;4.03;;;15.70;99.90;;;;;;5092136;28;20487;-57
2021/06/07 06:24:11;;;;;;;7.65;4.22;;;15.80;99.90;;;;;;5092184;28;20040;-57
2021/06/07 06:26:40;;;;;;;5.55;3.97;;;15.90;99.90;;;;;;5092599;28;20051;-57
2021/06/07 06:29:06;;;;;;;6.18;4.00;;;16.00;99.90;;;;;;5086222;28;20416;-57
2021/06/07 06:31:33;;;;;;;6.28;3.83;;;16.10;99.90;;;;;;5092561;28;20048;-57
2021/06/07 06:33:59;;;;;;;5.80;3.33;;;16.20;99.90;;;;;;5091949;28;20160;-57
2021/06/07 06:36:25;;;;;;;4.75;3.47;;;16.40;99.90;;;;;;5091838;28;20060;-57
2021/06/07 06:38:51;;;;;;;4.95;3.65;;;16.50;99.90;;;;;;5091926;28;20481;-57
2021/06/07 06:41:17;;;;;;;4.13;3.60;;;16.90;99.90;;;;;;5091459;28;20109;-57
2021/06/07 06:43:43;;;;;;;7.15;4.93;;;16.90;99.90;;;;;;5091846;28;20122;-57
2021/06/07 06:46:09;;;;;;;6.65;4.20;;;17.10;99.90;;;;;;5091644;28;20036;-57
2021/06/07 06:48:35;;;;;;;6.68;3.50;;;17.20;99.90;;;;;;5091596;28;20066;-58
2021/06/07 06:51:02;;;;;;;6.95;4.43;;;17.30;99.90;;;;;;5091693;28;20048;-57
2021/06/07 06:53:28;;;;;;;7.00;3.80;;;17.60;99.90;;;;;;5091282;28;20081;-57
2021/06/07 06:55:54;;;;;;;5.38;3.60;;;17.70;99.90;;;;;;5091520;28;20032;-57
2021/06/07 06:58:20;;;;;;;4.15;3.20;;;17.80;99.90;;;;;;5091584;28;20040;-57
2021/06/07 07:00:47;;;;;;;6.97;3.28;;;17.80;99.90;;;;;;5090196;28;20387;-56
2021/06/07 07:03:16;;;;;;;7.13;3.80;;;18.20;99.90;;;;;;5090266;28;20056;-58
2021/06/07 07:05:43;;;;;;;4.93;3.28;;;18.20;99.90;;;;;;5102881;28;20039;-57
2021/06/07 07:08:09;;;;;;;7.55;4.13;;;18.30;99.90;;;;;;5101728;28;20063;-58
2021/06/07 07:10:41;;;;;;;7.45;4.07;;;18.40;99.90;;;;;;5107127;28;20044;-58
2021/06/07 07:13:07;;;;;;;4.25;2.75;;;18.50;99.90;;;;;;5087472;28;20078;-57
2021/06/07 07:15:34;;;;;;;4.85;2.50;;;18.70;99.90;;;;;;5083849;28;20174;-58
2021/06/07 07:18:00;;;;;;;4.20;2.58;;;19.10;99.90;;;;;;5083294;28;20044;-58
2021/06/07 07:20:26;;;;;;;4.70;2.20;;;19.00;99.90;;;;;;5083649;28;20089;-58
2021/06/07 07:22:53;;;;;;;4.28;2.30;;;19.00;99.90;;;;;;5090155;28;20072;-58
2021/06/07 07:25:19;;;;;;;5.50;2.50;;;18.90;99.90;;;;;;5101469;28;20038;-58
2021/06/07 07:27:45;;;;;;;3.55;2.20;;;19.10;99.90;;;;;;5097490;28;20383;-58
2021/06/07 07:30:15;;;;;;;10.30;3.30;;;19.20;99.90;;;;;;5101441;28;20031;-59
2021/06/07 07:32:43;;;;;;;4.22;2.20;;;19.50;99.90;;;;;;5101755;28;20040;-57
2021/06/07 07:35:09;;;;;;;6.60;3.00;;;19.60;99.90;;;;;;5099874;28;20074;-57
2021/06/07 07:37:36;;;;;;;3.13;2.25;;;19.60;99.90;;;;;;5100639;28;20051;-58
2021/06/07 07:40:08;;;;;;;5.45;2.67;;;19.90;99.90;;;;;;5101064;28;20514;-58
2021/06/07 07:42:35;;;;;;;3.70;1.95;;;20.10;99.90;;;;;;5101075;28;20032;-58
2021/06/07 07:45:02;;;;;;;4.25;2.08;;;20.10;99.90;;;;;;5100109;28;20054;-56
2021/06/07 07:47:29;;;;;;;12.88;2.63;;;20.00;99.90;;;;;;5101031;28;20772;-56
2021/06/07 07:49:55;;;;;;;2.90;1.85;;;20.20;99.90;;;;;;5100035;28;20411;-56
2021/06/07 07:52:23;;;;;;;6.20;2.30;;;20.50;99.90;;;;;;5091364;28;20050;-56
2021/06/07 07:54:50;;;;;;;5.47;2.00;;;20.60;99.90;;;;;;5078781;28;20031;-56
2021/06/07 07:57:16;;;;;;;4.15;1.77;;;20.60;99.90;;;;;;5106969;28;20089;-56
2021/06/07 07:59:42;;;;;;;3.85;2.20;;;20.60;99.90;;;;;;5099483;28;20051;-56
2021/06/07 08:02:09;;;;;;;3.28;1.77;;;20.60;99.90;;;;;;5100346;28;20043;-56
2021/06/07 08:04:35;;;;;;;5.95;2.03;;;20.90;99.90;;;;;;5103055;28;20039;-56
2021/06/07 08:07:02;;;;;;;5.40;2.25;;;20.70;99.90;;;;;;5103743;28;20055;-56
2021/06/07 08:09:30;;;;;;;6.03;2.65;;;20.60;99.90;;;;;;5103945;28;20062;-56
2021/06/07 08:11:57;;;;;;;2.63;1.80;;;20.80;99.90;;;;;;5103475;28;20044;-56
2021/06/07 08:14:23;;;;;;;3.90;1.98;;;21.40;99.90;;;;;;5105166;28;20081;-56
2021/06/07 08:16:49;;;;;;;4.28;1.30;;;21.70;99.90;;;;;;5104814;28;20045;-57
2021/06/07 08:19:15;;;;;;;1.98;1.48;;;22.00;99.90;;;;;;5100488;28;20044;-56
2021/06/07 08:21:40;;;;;;;3.13;1.67;;;22.10;99.90;;;;;;5096991;28;20470;-56
2021/06/07 08:24:07;;;;;;;5.03;1.90;;;22.10;99.90;;;;;;5094534;28;20102;-57
2021/06/07 08:26:32;;;;;;;2.85;1.33;;;22.10;99.90;;;;;;5094127;28;20069;-56
2021/06/07 08:28:58;;;;;;;3.67;1.52;;;22.40;99.90;;;;;;5094559;28;20052;-57
2021/06/07 08:31:24;;;;;;;4.40;1.70;;;22.70;99.90;;;;;;5105933;28;20113;-56
2021/06/07 08:33:50;;;;;;;5.03;1.90;;;22.90;99.90;;;;;;5114723;28;20047;-56
2021/06/07 08:36:15;;;;;;;3.42;1.85;;;22.90;99.90;;;;;;5107778;28;20044;-56
2021/06/07 08:38:42;;;;;;;3.67;2.15;;;23.30;99.90;;;;;;5094431;28;20044;-56
2021/06/07 08:41:08;;;;;;;3.97;2.05;;;23.10;99.90;;;;;;5094141;28;20497;-56
2021/06/07 08:43:34;;;;;;;3.40;1.90;;;23.10;99.90;;;;;;5093994;28;20064;-56
2021/06/07 08:46:00;;;;;;;5.90;2.05;;;23.00;99.90;;;;;;5094174;28;20460;-56
2021/06/07 08:48:26;;;;;;;3.13;1.60;;;23.20;99.90;;;;;;5107267;28;20134;-56
2021/06/07 08:50:53;;;;;;;5.78;1.70;;;23.30;99.90;;;;;;5114436;28;20075;-56
2021/06/07 08:53:18;;;;;;;2.75;1.38;;;23.30;99.90;;;;;;5114281;28;20063;-56
2021/06/07 08:55:44;;;;;;;2.63;1.20;;;23.30;99.80;;;;;;5114325;28;20087;-56
2021/06/07 08:58:10;;;;;;;3.15;1.20;;;23.20;99.70;;;;;;5114242;28;20032;-56
2021/06/07 09:00:39;;;;;;;3.03;1.52;;;23.20;99.20;;;;;;5114302;28;20047;-56
2021/06/07 09:03:12;;;;;;;3.83;1.13;;;23.50;97.90;;;;;;5114059;28;20047;-56
2021/06/07 09:05:39;;;;;;;2.85;1.25;;;23.80;98.20;;;;;;5113870;28;20481;-57
2021/06/07 09:08:07;;;;;;;4.32;1.27;;;24.10;98.40;;;;;;5113913;28;20058;-56
2021/06/07 09:10:36;;;;;;;2.35;1.50;;;23.90;97.50;;;;;;5113871;28;20054;-56
2021/06/07 09:13:05;;;;;;;5.00;1.75;;;24.10;97.60;;;;;;5113627;28;20051;-56
2021/06/07 09:15:48;;;;;;;3.10;1.48;;;24.10;96.70;;;;;;5113021;28;20413;-56
2021/06/07 09:18:25;;;;;;;3.25;1.33;;;24.10;95.70;;;;;;5113461;28;20118;-56
2021/06/07 09:20:58;;;;;;;4.00;1.70;;;23.80;97.00;;;;;;5113588;28;20481;-56
2021/06/07 09:23:36;;;;;;;2.65;1.45;;;24.10;96.20;;;;;;5113840;28;20048;-57
2021/06/07 09:26:02;;;;;;;2.90;1.10;;;24.20;95.10;;;;;;5113786;28;20096;-56
2021/06/07 09:28:27;;;;;;;3.03;1.70;;;24.40;95.60;;;;;;5113460;28;20036;-57
2021/06/07 09:31:01;;;;;;;1.38;0.93;;;24.40;96.50;;;;;;5113509;28;20035;-56
2021/06/07 09:33:29;;;;;;;3.03;1.30;;;24.50;94.50;;;;;;5113251;28;20112;-57
2021/06/07 09:36:08;;;;;;;2.80;1.25;;;24.60;94.50;;;;;;5113293;28;20049;-57
2021/06/07 09:39:05;;;;;;;2.00;1.08;;;24.60;94.50;;;;;;5113424;28;20047;-57
2021/06/07 09:41:43;;;;;;;4.95;1.75;;;24.60;94.40;;;;;;5113254;28;20071;-57
2021/06/07 09:44:09;;;;;;;3.00;1.20;;;24.60;94.80;;;;;;5113468;28;20046;-56
2021/06/07 09:46:34;;;;;;;4.05;1.48;;;24.70;94.90;;;;;;5113100;28;20397;-57
2021/06/07 09:49:15;;;;;;;4.35;1.50;;;24.50;95.20;;;;;;5113184;28;20044;-56
2021/06/07 09:52:00;;;;;;;5.10;1.85;;;24.60;96.00;;;;;;5108966;28;20062;-57
2021/06/07 09:54:27;;;;;;;3.15;1.35;;;24.60;94.90;;;;;;5099444;28;20040;-57
2021/06/07 09:57:01;;;;;;;4.13;1.60;;;24.70;94.60;;;;;;5096258;28;20048;-57
2021/06/07 09:59:30;;;;;;;2.20;2.00;;;24.70;94.20;;;;;;5091263;28;20337;-56
2021/06/07 10:01:57;;;;;;;3.95;2.45;;;24.80;94.80;;;;;;5091677;28;20036;-55
2021/06/07 10:04:58;;;;;;;2.45;1.75;;;24.50;94.80;;;;;;5092526;28;20043;-56
2021/06/07 10:07:25;;;;;;;3.80;1.95;;;24.60;95.00;;;;;;5092390;28;20465;-57
2021/06/07 10:10:08;;;;;;;4.63;2.00;;;24.60;94.70;;;;;;5092376;28;20063;-56
2021/06/07 10:12:34;;;;;;;4.50;2.33;;;24.90;94.10;;;;;;5092134;28;20051;-56
2021/06/07 10:14:59;;;;;;;6.63;2.50;;;24.70;94.80;;;;;;5092149;28;20048;-56
2021/06/07 10:17:25;;;;;;;2.72;1.88;;;24.70;95.00;;;;;;5092533;28;20050;-57
2021/06/07 10:22:36;;;;;;;6.78;2.20;;;24.50;94.90;;;;;;5092587;28;20052;-57
2021/06/07 10:25:03;;;;;;;5.32;2.25;;;24.50;94.40;;;;;;5092065;28;20066;-57
2021/06/07 10:27:28;;;;;;;6.25;2.20;;;24.50;95.10;;;;;;5091024;28;20109;-57
2021/06/07 10:29:55;;;;;;;4.18;2.00;;;24.50;95.50;;;;;;5092290;28;20040;-56
2021/06/07 10:32:25;;;;;;;4.82;1.70;;;24.60;95.00;;;;;;5092165;28;20040;-57
2021/06/07 10:34:54;;;;;;;4.72;2.03;;;24.90;94.40;;;;;;5073788;28;20090;-57
2021/06/07 10:37:20;;;;;;;3.80;1.90;;;25.00;94.30;;;;;;5091833;28;20035;-56
2021/06/07 10:39:47;;;;;;;3.95;1.95;;;25.20;93.90;;;;;;5091964;28;20068;-56
2021/06/07 10:42:19;;;;;;;4.65;1.45;;;25.20;92.70;;;;;;5092192;28;20040;-56
2021/06/07 10:44:49;;;;;;;4.45;1.60;;;25.40;92.90;;;;;;5091845;28;20040;-56
2021/06/07 10:47:21;;;;;;;7.35;2.45;;;25.40;93.00;;;;;;5092084;28;20040;-56
2021/06/07 10:49:50;;;;;;;3.45;1.90;;;25.50;92.70;;;;;;5090340;28;20041;-61
2021/06/07 10:52:22;;;;;;;2.38;1.50;;;25.50;93.10;;;;;;5089753;28;20441;-60
2021/06/07 10:55:04;;;;;;;4.32;1.60;;;25.20;91.80;;;;;;5078264;28;20040;-61
2021/06/07 10:57:31;;;;;;;7.10;2.08;;;25.40;90.70;;;;;;5090285;28;20075;-61
2021/06/07 11:00:07;;;;;;;4.70;1.83;;;25.50;91.20;;;;;;5091841;28;20048;-60
2021/06/07 11:02:36;;;;;;;3.67;1.80;;;25.20;90.30;;;;;;5091706;28;20082;-61
2021/06/07 11:05:12;;;;;;;3.75;1.35;;;25.60;91.70;;;;;;5091730;28;20071;-61
2021/06/07 11:07:40;;;;;;;4.00;2.20;;;25.90;92.00;;;;;;5091785;28;20489;-60
2021/06/07 11:10:23;;;;;;;4.05;1.45;;;25.70;91.60;;;;;;5091878;28;20052;-60
2021/06/07 11:12:53;;;;;;;3.15;1.35;;;25.60;91.00;;;;;;5091850;28;20074;-61
2021/06/07 11:15:20;;;;;;;4.15;1.85;;;25.50;90.60;;;;;;5091430;28;20101;-61
2021/06/07 11:17:47;;;;;;;2.93;1.50;;;25.70;90.90;;;;;;5092160;28;20444;-60
2021/06/07 11:20:28;;;;;;;3.72;1.80;;;25.70;90.90;;;;;;5091035;28;20047;-60
2021/06/07 11:23:16;;;;;;;1.88;1.40;;;25.80;91.90;;;;;;5101355;28;20035;-61
2021/06/07 11:25:53;;;;;;;3.92;1.58;;;25.80;92.10;;;;;;5111826;28;20036;-60
2021/06/07 11:28:41;;;;;;;5.03;1.40;;;25.80;92.50;;;;;;5110634;28;20044;-60
2021/06/07 11:31:18;;;;;;;4.30;2.10;;;25.70;92.00;;;;;;5101265;28;20458;-60
2021/06/07 11:33:55;;;;;;;3.80;1.60;;;25.50;91.70;;;;;;5100689;28;20401;-61
2021/06/07 11:36:56;;;;;;;4.35;1.60;;;25.70;91.60;;;;;;5099624;28;20127;-60
2021/06/07 11:39:24;;;;;;;4.13;1.60;;;25.80;91.10;;;;;;5101373;28;20047;-61
2021/06/07 11:41:58;;;;;;;5.27;2.43;;;25.90;91.50;;;;;;5103623;28;20051;-60
2021/06/07 11:44:45;;;;;;;4.88;1.77;;;25.70;91.30;;;;;;5104566;28;20285;-60
2021/06/07 11:47:36;;;;;;;4.38;1.27;;;25.70;89.70;;;;;;5105670;28;20104;-61
2021/06/07 11:50:04;;;;;;;3.35;1.85;;;26.00;91.60;;;;;;5001878;28;20165;-61
2021/06/07 11:52:33;;;;;;;4.38;1.90;;;25.90;92.10;;;;;;5001936;28;20042;-60
2021/06/07 11:55:05;;;;;;;4.07;1.95;;;25.90;92.10;;;;;;5002920;28;20084;-61
2021/06/07 11:57:31;;;;;;;3.67;2.10;;;25.80;91.70;;;;;;5003784;28;20068;-61
2021/06/07 11:59:59;;;;;;;2.30;1.50;;;25.70;91.80;;;;;;5002281;28;20043;-61
2021/06/07 12:02:27;;;;;;;2.95;1.80;;;25.60;90.00;;;;;;4994212;28;20582;-61
2021/06/07 12:04:53;;;;;;;3.38;1.80;;;25.20;89.60;;;;;;5012669;28;20056;-61
2021/06/07 12:07:20;;;;;;;2.08;1.45;;;25.20;90.30;;;;;;5012806;28;20052;-61
2021/06/07 12:09:52;;;;;;;5.57;2.33;;;25.10;89.60;;;;;;5012705;28;20045;-61
2021/06/07 12:12:20;;;;;;;4.32;1.65;;;25.40;92.80;;;;;;5012753;28;20054;-61
2021/06/07 12:14:47;;;;;;;4.13;2.10;;;25.40;90.50;;;;;;5012688;28;20046;-62
2021/06/07 12:17:20;;;;;;;3.85;1.40;;;24.90;90.10;;;;;;5012480;28;20050;-61
2021/06/07 12:19:51;;;;;;;3.17;0.90;;;24.90;90.10;;;;;;5012524;28;20046;-61
2021/06/07 12:22:26;;;;;;;2.75;1.05;;;24.90;87.60;;;;;;5012545;28;20049;-61
2021/06/07 12:25:00;;;;;;;4.78;1.88;;;25.00;85.60;;;;;;5012547;28;20046;-61
2021/06/07 12:30:17;;;;;;;2.92;1.30;;;25.20;91.00;;;;;;5094601;28;20470;-61
2021/06/07 12:32:43;;;;;;;2.20;1.02;;;25.10;89.40;;;;;;5094331;28;20139;-61
2021/06/07 12:35:12;;;;;;;4.25;1.27;;;25.30;91.10;;;;;;5094311;28;20043;-61
2021/06/07 12:37:51;;;;;;;3.67;0.98;;;25.10;86.50;;;;;;5076177;28;20052;-61
2021/06/07 12:40:27;;;;;;;7.03;1.48;;;24.80;87.80;;;;;;5094393;28;20047;-61
2021/06/07 12:43:07;;;;;;;6.68;1.77;;;24.70;85.20;;;;;;5094505;28;20044;-61
2021/06/07 12:45:42;;;;;;;4.15;1.50;;;24.90;90.60;;;;;;5094122;28;20035;-61
2021/06/07 12:48:25;;;;;;;3.60;1.80;;;24.80;92.20;;;;;;5094416;28;20746;-61
2021/06/07 12:50:58;;;;;;;4.22;1.27;;;24.60;87.40;;;;;;5093022;28;20036;-61
2021/06/07 12:53:28;;;;;;;1.80;1.02;;;24.80;90.50;;;;;;5094007;28;20071;-61
2021/06/07 12:55:57;;;;;;;4.40;1.48;;;24.90;91.50;;;;;;5093928;28;20389;-61
2021/06/07 12:58:27;;;;;;;3.80;1.25;;;25.00;91.50;;;;;;5094074;28;20071;-61